createdAt,value
2023-08-11T19:58:56.627Z,4.47
2023-08-11T19:59:59.006Z,4.95
2023-08-11T20:01:01.308Z,5.53
2023-08-11T20:02:03.892Z,4.97
2023-08-11T20:03:08.450Z,5.72
2023-08-11T20:04:10.676Z,5.10
2023-08-11T20:05:12.934Z,4.78
2023-08-11T20:06:15.103Z,4.47
2023-08-11T20:07:17.132Z,5.10
2023-08-11T20:08:19.379Z,4.43
2023-08-11T20:09:23.557Z,4.95
2023-08-11T20:10:25.847Z,4.82
2023-08-11T20:11:27.911Z,5.43
2023-08-11T20:12:29.890Z,5.15
2023-08-11T20:13:31.969Z,5.25
2023-08-11T20:14:34.012Z,5.03
2023-08-11T20:15:36.153Z,4.65
2023-08-11T20:16:38.152Z,4.90
2023-08-11T20:17:40.256Z,4.55
2023-08-11T20:18:42.316Z,4.68
2023-08-11T20:19:44.311Z,4.45
2023-08-11T20:20:46.563Z,4.55
2023-08-11T20:21:49.501Z,4.72
2023-08-11T20:22:51.802Z,4.30
2023-08-11T20:23:53.829Z,4.72
2023-08-11T20:24:55.910Z,5.03
2023-08-11T20:25:58.064Z,4.75
2023-08-11T20:27:00.195Z,5.47
2023-08-11T20:28:02.210Z,5.07
2023-08-11T20:29:04.540Z,4.63
2023-08-11T20:30:07.468Z,4.88
2023-08-11T20:31:09.584Z,5.47
2023-08-11T20:32:11.727Z,4.90
2023-08-11T20:33:13.763Z,4.70
2023-08-11T20:34:15.990Z,5.28
2023-08-11T20:35:18.376Z,4.55
2023-08-11T20:36:20.401Z,5.38
2023-08-11T20:37:22.499Z,5.43
2023-08-11T20:38:24.591Z,3.85
2023-08-11T20:39:27.440Z,5.05
2023-08-11T20:40:29.536Z,5.38
2023-08-11T20:41:31.566Z,4.93
2023-08-11T20:42:35.093Z,4.90
2023-08-11T20:43:37.199Z,4.97
2023-08-11T20:44:39.278Z,5.30
2023-08-11T20:45:41.344Z,5.35
2023-08-11T20:46:43.588Z,4.18
2023-08-11T20:47:45.710Z,5.13
2023-08-11T20:48:47.825Z,4.47
2023-08-11T20:49:50.078Z,4.65
2023-08-11T20:50:52.725Z,5.28
2023-08-11T20:51:57.055Z,5.53
2023-08-11T20:52:59.175Z,4.93
2023-08-11T20:54:01.137Z,5.13
2023-08-11T20:55:03.741Z,5.45
2023-08-11T20:56:06.157Z,5.18
2023-08-11T20:57:10.004Z,5.03
2023-08-11T20:58:12.290Z,4.82
2023-08-11T20:59:14.314Z,4.90
2023-08-11T21:00:16.659Z,5.05
2023-08-11T21:01:18.822Z,5.57
2023-08-11T21:02:20.851Z,4.55
2023-08-11T21:03:22.949Z,4.95
2023-08-11T21:04:25.162Z,5.05
2023-08-11T21:05:27.260Z,4.90
2023-08-11T21:06:32.173Z,4.75
2023-08-11T21:07:34.382Z,5.03
2023-08-11T21:08:36.430Z,5.10
2023-08-11T21:09:38.462Z,5.30
2023-08-11T21:10:46.705Z,5.65
2023-08-11T21:11:49.348Z,5.65
2023-08-11T21:12:52.065Z,5.40
2023-08-11T21:13:56.006Z,5.10
2023-08-11T21:14:58.035Z,5.10
2023-08-11T21:16:00.047Z,5.53
2023-08-11T21:17:03.640Z,4.70
2023-08-11T21:18:07.278Z,5.10
2023-08-11T21:19:09.335Z,4.95
2023-08-11T21:20:11.831Z,5.25
2023-08-11T21:21:13.993Z,5.22
2023-08-11T21:22:16.137Z,5.45
2023-08-11T21:23:20.387Z,5.03
2023-08-11T21:24:22.618Z,5.85
2023-08-11T21:25:24.690Z,5.43
2023-08-11T21:26:26.871Z,4.97
2023-08-11T21:27:29.250Z,6.28
2023-08-11T21:28:31.275Z,5.55
2023-08-11T21:29:33.340Z,5.05
2023-08-11T21:30:35.538Z,5.28
2023-08-11T21:31:37.579Z,5.70
2023-08-11T21:32:39.718Z,6.07
2023-08-11T21:33:41.812Z,6.45
2023-08-11T21:34:43.919Z,5.93
2023-08-11T21:35:45.948Z,5.40
2023-08-11T21:36:47.955Z,6.90
2023-08-11T21:37:50.421Z,6.45
2023-08-11T21:38:52.421Z,6.03
2023-08-11T21:39:54.429Z,6.45
2023-08-11T21:40:56.890Z,5.72
2023-08-11T21:41:58.877Z,6.05
2023-08-11T21:43:01.053Z,5.80
2023-08-11T21:44:04.061Z,6.43
2023-08-11T21:45:06.704Z,6.03
2023-08-11T21:46:08.720Z,6.38
2023-08-11T21:47:11.093Z,6.22
2023-08-11T21:48:13.462Z,6.80
2023-08-11T21:49:15.548Z,7.00
2023-08-11T21:50:17.589Z,8.40
2023-08-11T21:51:19.760Z,7.78
2023-08-11T21:52:21.806Z,8.85
2023-08-11T21:53:24.174Z,7.03
2023-08-11T21:54:26.390Z,7.88
2023-08-11T21:55:28.349Z,6.35
2023-08-11T21:56:30.529Z,6.82
2023-08-11T21:57:32.870Z,8.27
2023-08-11T21:58:35.456Z,6.57
2023-08-11T21:59:42.200Z,7.10
2023-08-11T22:00:45.175Z,7.18
2023-08-11T22:01:47.343Z,7.43
2023-08-11T22:02:49.366Z,6.97
2023-08-11T22:03:51.469Z,6.82
2023-08-11T22:04:53.512Z,8.25
2023-08-11T22:05:55.786Z,7.97
2023-08-11T22:06:57.978Z,8.35
2023-08-11T22:08:00.089Z,9.10
2023-08-11T22:09:04.101Z,10.73
2023-08-11T22:10:06.587Z,10.07
2023-08-11T22:11:15.688Z,10.13
2023-08-11T22:12:24.602Z,9.82
2023-08-11T22:13:26.692Z,9.23
2023-08-11T22:14:28.824Z,9.32
2023-08-11T22:15:30.883Z,7.97
2023-08-11T22:16:34.544Z,8.88
2023-08-11T22:17:36.665Z,9.52
2023-08-11T22:18:38.721Z,11.10
2023-08-11T22:19:46.864Z,8.98
2023-08-11T22:20:48.934Z,9.93
2023-08-11T22:21:51.855Z,11.57
2023-08-11T22:22:53.828Z,11.07
2023-08-11T22:23:55.939Z,10.82
2023-08-11T22:25:01.646Z,12.40
2023-08-11T22:26:03.772Z,11.25
2023-08-11T22:27:06.096Z,11.40
2023-08-11T22:28:08.424Z,11.13
2023-08-11T22:29:10.404Z,10.73
2023-08-11T22:30:13.698Z,10.35
2023-08-11T22:31:15.874Z,11.68
2023-08-11T22:32:17.905Z,11.25
2023-08-11T22:33:20.410Z,12.25
2023-08-11T22:34:22.434Z,11.02
2023-08-11T22:35:24.893Z,11.57
2023-08-11T22:36:27.009Z,11.30
2023-08-11T22:37:29.081Z,10.18
2023-08-11T22:38:31.127Z,10.80
2023-08-11T22:39:33.075Z,10.25
2023-08-11T22:40:35.162Z,9.82
2023-08-11T22:41:37.344Z,10.98
2023-08-11T22:42:39.383Z,11.27
2023-08-11T22:43:41.429Z,10.82
2023-08-11T22:44:43.507Z,10.95
2023-08-11T22:45:45.856Z,10.43
2023-08-11T22:46:48.248Z,9.85
2023-08-11T22:47:51.347Z,9.93
2023-08-11T22:48:53.457Z,9.65
2023-08-11T22:49:56.848Z,8.82
2023-08-11T22:50:58.969Z,9.07
2023-08-11T22:52:00.980Z,9.05
2023-08-11T22:53:04.278Z,9.65
2023-08-11T22:54:06.392Z,9.25
2023-08-11T22:55:09.513Z,8.98
2023-08-11T22:56:11.644Z,8.30
2023-08-11T22:57:13.974Z,9.00
2023-08-11T22:58:16.327Z,8.30
2023-08-11T22:59:20.966Z,8.90
2023-08-11T23:00:23.073Z,8.50
2023-08-11T23:01:25.327Z,7.32
2023-08-11T23:02:27.408Z,8.32
2023-08-11T23:03:29.646Z,7.45
2023-08-11T23:04:31.719Z,7.65
2023-08-11T23:05:34.252Z,7.75
2023-08-11T23:06:36.296Z,6.93
2023-08-11T23:07:41.815Z,7.18
2023-08-11T23:08:43.911Z,7.22
2023-08-11T23:09:45.900Z,6.90
2023-08-11T23:10:48.352Z,7.28
2023-08-11T23:11:50.412Z,6.97
2023-08-11T23:12:52.641Z,8.05
2023-08-11T23:13:54.663Z,6.78
2023-08-11T23:14:57.308Z,6.68
2023-08-11T23:16:01.095Z,6.65
2023-08-11T23:18:05.498Z,6.05
2023-08-11T23:19:07.630Z,6.60
2023-08-11T23:20:10.439Z,6.68
2023-08-11T23:21:12.601Z,7.45
2023-08-11T23:22:14.671Z,6.65
2023-08-11T23:23:16.794Z,7.22
2023-08-11T23:24:19.130Z,7.22
2023-08-11T23:25:21.241Z,6.63
2023-08-11T23:26:23.301Z,6.75
2023-08-11T23:27:31.887Z,7.00
2023-08-11T23:28:34.186Z,6.85
2023-08-11T23:29:36.276Z,6.32
2023-08-11T23:30:38.281Z,7.32
2023-08-11T23:31:42.898Z,6.75
2023-08-11T23:32:45.494Z,5.85
2023-08-11T23:33:47.825Z,6.88
2023-08-11T23:34:49.801Z,7.88
2023-08-11T23:35:51.856Z,6.25
2023-08-11T23:36:53.856Z,7.13
2023-08-11T23:37:55.923Z,6.47
2023-08-11T23:38:58.031Z,6.15
2023-08-11T23:40:00.191Z,6.80
2023-08-11T23:41:02.167Z,8.80
2023-08-11T23:42:05.437Z,8.15
2023-08-11T23:43:07.911Z,6.88
2023-08-11T23:44:10.007Z,7.90
2023-08-11T23:45:13.385Z,7.40
2023-08-11T23:46:15.779Z,7.00
2023-08-11T23:47:18.312Z,7.03
2023-08-11T23:48:20.660Z,7.90
2023-08-11T23:49:22.798Z,7.28
2023-08-11T23:50:25.106Z,7.68
2023-08-11T23:51:28.615Z,6.70
2023-08-11T23:52:31.286Z,6.70
2023-08-11T23:53:33.279Z,7.60
2023-08-11T23:54:35.481Z,7.40
2023-08-11T23:55:38.193Z,6.63
2023-08-11T23:56:40.254Z,7.40
2023-08-11T23:57:42.856Z,7.55
2023-08-11T23:58:45.029Z,7.45
2023-08-11T23:59:47.082Z,8.52
